Time;durP1;ratioP1;P1;durP2;ratioP2;P2;SDS_P1;SDS_P2;PMS_P1;PMS_P2;Temp;Humidity;BMP_temperature;BMP_pressure;BME280_temperature;BME280_humidity;BME280_pressure;Samples;Min_cycle;Max_cycle;Signal;HPM_P1;HPM_P2
2021/07/21 00:01:55;;;;;;;9.10;4.15;;;17.90;99.90;;;;;;5014487;28;20042;-85
2021/07/21 00:04:42;;;;;;;7.68;4.00;;;18.00;99.90;;;;;;5013853;28;20112;-89
2021/07/21 00:07:29;;;;;;;6.75;3.78;;;17.90;99.90;;;;;;4999119;28;20045;-85
2021/07/21 00:10:21;;;;;;;7.20;4.03;;;17.80;99.90;;;;;;5012516;28;20042;-84
2021/07/21 00:13:27;;;;;;;7.82;4.63;;;17.80;99.90;;;;;;4997269;28;20513;-86
2021/07/21 00:16:19;;;;;;;10.40;5.25;;;17.70;99.90;;;;;;5007646;28;20131;-85
2021/07/21 00:22:13;;;;;;;10.82;5.53;;;17.30;99.90;;;;;;4988684;28;20500;-86
2021/07/21 00:25:03;;;;;;;10.95;5.38;;;17.30;99.90;;;;;;5016620;28;20038;-86
2021/07/21 00:27:50;;;;;;;9.13;5.00;;;17.20;99.90;;;;;;5010240;28;20042;-87
2021/07/21 00:30:38;;;;;;;8.57;5.20;;;17.20;99.90;;;;;;5010942;28;20049;-85
2021/07/21 00:33:26;;;;;;;10.65;4.80;;;17.20;99.90;;;;;;5000150;28;20050;-84
2021/07/21 00:36:13;;;;;;;8.90;4.63;;;17.30;99.90;;;;;;5010768;28;20180;-87
2021/07/21 00:39:00;;;;;;;9.52;5.00;;;17.40;99.90;;;;;;5017026;28;20049;-81
2021/07/21 00:41:47;;;;;;;8.18;4.38;;;17.50;99.90;;;;;;5008850;28;20188;-84
2021/07/21 00:44:34;;;;;;;8.05;3.88;;;17.50;99.90;;;;;;4998939;28;20125;-88
2021/07/21 00:47:22;;;;;;;7.43;4.07;;;17.60;99.90;;;;;;5011814;28;20046;-87
2021/07/21 00:50:11;;;;;;;7.93;4.32;;;17.60;99.90;;;;;;5000658;28;20473;-85
2021/07/21 00:52:58;;;;;;;8.18;4.10;;;17.60;99.90;;;;;;5003216;28;20109;-85
2021/07/21 00:55:46;;;;;;;6.68;4.00;;;17.60;99.90;;;;;;5019533;28;20137;-88
2021/07/21 00:58:33;;;;;;;8.48;4.30;;;17.60;99.90;;;;;;5013413;28;20135;-86
2021/07/21 01:01:21;;;;;;;10.32;5.20;;;17.60;99.90;;;;;;5008851;28;20042;-84
2021/07/21 01:04:08;;;;;;;8.00;4.72;;;17.40;99.90;;;;;;5010048;28;20045;-85
2021/07/21 01:06:57;;;;;;;8.63;4.75;;;17.40;99.90;;;;;;5010203;28;20176;-86
2021/07/21 01:09:45;;;;;;;10.38;5.38;;;17.40;99.90;;;;;;5011582;28;20049;-87
2021/07/21 01:12:37;;;;;;;8.65;4.82;;;17.40;99.90;;;;;;5009836;28;20045;-87
2021/07/21 01:15:32;;;;;;;8.68;4.82;;;17.50;99.90;;;;;;4996203;28;20045;-85
2021/07/21 01:18:25;;;;;;;9.10;4.88;;;17.50;99.90;;;;;;5010787;28;20187;-84
2021/07/21 01:21:25;;;;;;;9.10;5.03;;;17.50;99.90;;;;;;4994842;28;20203;-85
2021/07/21 01:24:20;;;;;;;7.80;4.88;;;17.40;99.90;;;;;;5001906;28;20526;-84
2021/07/21 01:27:27;;;;;;;9.55;4.65;;;17.30;99.90;;;;;;5007327;28;20096;-85
2021/07/21 01:30:16;;;;;;;9.43;4.63;;;17.30;99.90;;;;;;5007158;28;20053;-86
2021/07/21 01:33:07;;;;;;;7.65;4.45;;;17.40;99.90;;;;;;5011636;28;20112;-86
2021/07/21 01:35:59;;;;;;;7.57;4.55;;;17.40;99.90;;;;;;5012315;28;20128;-85
2021/07/21 01:38:51;;;;;;;7.93;4.32;;;17.50;99.90;;;;;;4994900;28;20180;-83
2021/07/21 01:41:43;;;;;;;7.35;4.30;;;17.60;99.90;;;;;;5000510;28;20050;-86
2021/07/21 01:44:36;;;;;;;6.93;4.18;;;17.50;99.90;;;;;;5007235;28;20119;-87
2021/07/21 01:47:23;;;;;;;11.77;4.72;;;17.60;99.90;;;;;;4989201;28;20116;-86
2021/07/21 01:50:12;;;;;;;10.60;4.78;;;17.50;99.90;;;;;;5014690;28;20525;-86
2021/07/21 01:52:59;;;;;;;7.75;4.10;;;17.50;99.90;;;;;;5009703;28;20056;-85
2021/07/21 01:55:47;;;;;;;7.50;4.18;;;17.50;99.90;;;;;;5007367;28;20132;-85
2021/07/21 01:58:35;;;;;;;6.65;4.18;;;17.50;99.90;;;;;;5010948;28;20038;-88
2021/07/21 02:01:27;;;;;;;8.93;4.70;;;17.50;99.90;;;;;;5008670;28;20632;-85
2021/07/21 02:04:15;;;;;;;9.15;4.32;;;17.60;99.90;;;;;;4997954;28;20046;-85
2021/07/21 02:07:06;;;;;;;8.07;4.68;;;17.60;99.90;;;;;;4997851;28;20045;-83
2021/07/21 02:09:53;;;;;;;9.05;4.47;;;17.60;99.90;;;;;;5009405;28;20436;-85
2021/07/21 02:12:41;;;;;;;8.30;4.80;;;17.60;99.90;;;;;;4992294;28;20523;-85
2021/07/21 02:15:29;;;;;;;7.05;4.15;;;17.50;99.90;;;;;;5011655;28;20042;-87
2021/07/21 02:18:19;;;;;;;9.23;4.43;;;17.50;99.90;;;;;;5000322;28;20046;-87
2021/07/21 02:21:06;;;;;;;;;;;17.50;99.90;;;;;;5001122;28;20180;-85
2021/07/21 02:23:54;;;;;;;8.02;4.18;;;17.50;99.90;;;;;;5011844;28;19922;-85
2021/07/21 02:26:42;;;;;;;9.23;4.80;;;17.50;99.90;;;;;;4997547;28;20054;-85
2021/07/21 02:29:29;;;;;;;10.63;4.90;;;17.50;99.90;;;;;;5009636;28;20046;-87
2021/07/21 02:32:23;;;;;;;9.70;4.72;;;17.50;99.90;;;;;;4998660;28;20049;-85
2021/07/21 02:35:18;;;;;;;9.20;5.05;;;17.50;99.90;;;;;;5009039;28;20053;-84
2021/07/21 02:38:06;;;;;;;8.90;5.20;;;18.90;99.90;;;;;;4994080;28;20103;-85
2021/07/21 02:40:54;;;;;;;8.65;5.18;;;17.40;99.90;;;;;;4996257;28;20041;-85
2021/07/21 02:43:41;;;;;;;9.38;4.88;;;17.20;99.90;;;;;;5013803;28;20045;-86
2021/07/21 02:46:29;;;;;;;9.48;4.53;;;17.20;99.90;;;;;;5006627;28;20416;-85
2021/07/21 02:49:19;;;;;;;13.73;5.68;;;17.30;99.90;;;;;;5008754;28;20054;-84
2021/07/21 02:52:13;;;;;;;7.50;4.57;;;17.30;99.90;;;;;;5010745;28;20042;-86
2021/07/21 02:55:07;;;;;;;7.90;4.82;;;17.40;99.90;;;;;;4996993;28;20042;-86
2021/07/21 02:57:59;;;;;;;7.07;4.43;;;17.40;99.90;;;;;;4995344;28;20099;-85
2021/07/21 03:00:47;;;;;;;7.88;4.65;;;17.40;99.90;;;;;;4999372;28;20123;-85
2021/07/21 03:03:36;;;;;;;8.20;4.72;;;17.40;99.90;;;;;;4996259;28;20050;-86
2021/07/21 03:06:26;;;;;;;7.07;3.97;;;17.40;99.90;;;;;;4996152;28;20131;-83
2021/07/21 03:09:17;;;;;;;7.95;4.57;;;17.40;99.90;;;;;;5005915;28;20168;-86
2021/07/21 03:12:09;;;;;;;9.38;4.72;;;17.40;99.90;;;;;;4998711;28;20085;-86
2021/07/21 03:14:59;;;;;;;8.07;4.72;;;17.40;99.90;;;;;;4995421;28;20049;-85
2021/07/21 03:17:48;;;;;;;8.40;4.82;;;17.40;99.90;;;;;;5009639;28;20125;-85
2021/07/21 03:20:35;;;;;;;9.07;4.65;;;17.40;99.90;;;;;;5000181;28;20164;-84
2021/07/21 03:23:24;;;;;;;8.35;4.60;;;17.30;99.90;;;;;;5013506;28;20068;-84
2021/07/21 03:26:14;;;;;;;8.82;4.15;;;17.30;99.90;;;;;;5009019;28;20124;-87
2021/07/21 03:29:01;;;;;;;10.50;4.88;;;17.30;99.90;;;;;;4996117;28;20157;-85
2021/07/21 03:31:49;;;;;;;8.30;4.38;;;17.30;99.90;;;;;;5002619;28;20175;-83
2021/07/21 03:34:39;;;;;;;12.75;5.15;;;17.40;99.90;;;;;;5012732;28;20428;-85
2021/07/21 03:37:27;;;;;;;8.15;4.97;;;17.30;99.90;;;;;;5010170;28;20123;-86
2021/07/21 03:40:16;;;;;;;8.38;4.57;;;17.30;99.90;;;;;;5019974;28;20125;-88
2021/07/21 03:43:08;;;;;;;9.65;4.20;;;17.30;99.90;;;;;;5000130;28;20409;-87
2021/07/21 03:45:58;;;;;;;8.88;4.38;;;17.30;99.90;;;;;;5006649;28;20042;-83
2021/07/21 03:48:46;;;;;;;9.05;4.78;;;17.20;99.90;;;;;;5011524;28;20038;-84
2021/07/21 03:51:33;;;;;;;7.47;4.68;;;17.20;99.90;;;;;;5013305;28;20431;-87
2021/07/21 03:54:22;;;;;;;8.88;4.70;;;17.30;99.90;;;;;;5004065;28;20050;-87
2021/07/21 03:57:10;;;;;;;8.25;4.93;;;17.30;99.90;;;;;;5011186;28;20046;-81
2021/07/21 03:59:59;;;;;;;8.82;4.97;;;17.30;99.90;;;;;;5026799;28;20105;-83
2021/07/21 04:02:51;;;;;;;10.32;5.05;;;17.30;99.90;;;;;;5031149;28;20070;-81
2021/07/21 04:05:38;;;;;;;8.43;4.85;;;17.30;99.90;;;;;;5025354;28;20037;-84
2021/07/21 04:08:26;;;;;;;8.85;5.13;;;17.30;99.90;;;;;;5008451;28;20042;-86
2021/07/21 04:11:13;;;;;;;9.93;4.75;;;17.30;99.90;;;;;;5006478;28;20510;-83
2021/07/21 04:14:04;;;;;;;8.63;4.43;;;17.40;99.90;;;;;;5019517;28;20046;-85
2021/07/21 04:16:55;;;;;;;10.48;5.18;;;17.40;99.90;;;;;;5010782;28;20520;-86
2021/07/21 04:19:43;;;;;;;;;;;17.40;99.90;;;;;;5024289;28;20077;-86
2021/07/21 04:22:32;;;;;;;10.18;4.72;;;17.40;99.90;;;;;;5013033;28;19925;-86
2021/07/21 04:25:21;;;;;;;10.60;5.22;;;17.30;99.90;;;;;;5007603;28;20061;-84
2021/07/21 04:28:09;;;;;;;9.35;5.05;;;17.40;99.90;;;;;;4998037;28;20107;-86
2021/07/21 04:30:58;;;;;;;8.10;4.63;;;17.40;99.90;;;;;;5010967;28;20121;-85
2021/07/21 04:33:47;;;;;;;10.38;5.07;;;17.40;99.90;;;;;;5010500;28;20045;-86
2021/07/21 04:36:35;;;;;;;7.78;4.88;;;17.50;99.90;;;;;;5008412;28;20139;-82
2021/07/21 04:39:22;;;;;;;9.30;5.47;;;17.50;99.90;;;;;;4998295;28;20064;-83
2021/07/21 04:42:09;;;;;;;9.32;5.20;;;17.50;99.90;;;;;;5010559;28;20128;-87
2021/07/21 04:44:57;;;;;;;9.70;4.60;;;17.50;99.90;;;;;;5010984;28;20053;-85
2021/07/21 04:47:44;;;;;;;7.57;5.20;;;17.50;99.90;;;;;;5012140;28;20085;-87
2021/07/21 04:50:34;;;;;;;8.13;4.72;;;17.60;99.90;;;;;;4999886;28;20056;-83
2021/07/21 04:53:21;;;;;;;8.43;5.03;;;17.60;99.90;;;;;;4988569;28;20089;-83
2021/07/21 04:56:08;;;;;;;9.68;5.25;;;17.60;99.90;;;;;;5010529;28;20052;-85
2021/07/21 04:58:56;;;;;;;12.88;5.70;;;17.60;99.90;;;;;;4997349;28;20416;-85
2021/07/21 05:01:43;;;;;;;11.77;5.78;;;17.60;99.90;;;;;;5002384;28;20129;-85
2021/07/21 05:04:30;;;;;;;10.75;5.72;;;17.60;99.90;;;;;;4995486;28;20049;-87
2021/07/21 05:07:19;;;;;;;11.95;5.75;;;17.60;99.90;;;;;;5011499;28;20528;-85
2021/07/21 05:10:06;;;;;;;10.63;5.95;;;17.70;99.90;;;;;;5003486;28;20045;-85
2021/07/21 05:12:53;;;;;;;11.07;6.10;;;17.80;99.90;;;;;;5001167;28;20136;-84
2021/07/21 05:15:44;;;;;;;11.45;5.90;;;17.90;99.90;;;;;;5007278;28;20123;-87
2021/07/21 05:18:32;;;;;;;9.13;5.15;;;17.90;99.90;;;;;;4989337;28;20051;-85
2021/07/21 05:21:19;;;;;;;9.20;4.90;;;17.90;99.90;;;;;;5012877;28;20053;-86
2021/07/21 05:24:07;;;;;;;9.27;4.78;;;17.90;99.90;;;;;;5010595;28;20092;-85
2021/07/21 05:26:54;;;;;;;11.07;5.95;;;18.00;99.90;;;;;;4993256;28;20548;-84
2021/07/21 05:29:41;;;;;;;10.10;5.40;;;18.00;99.90;;;;;;5000591;28;20416;-86
2021/07/21 05:32:28;;;;;;;9.23;5.60;;;18.20;99.90;;;;;;4998033;28;20549;-83
2021/07/21 05:35:15;;;;;;;9.25;5.30;;;18.20;99.90;;;;;;5010714;28;20420;-85
2021/07/21 05:38:02;;;;;;;9.82;5.10;;;18.20;99.90;;;;;;5009307;28;20132;-86
2021/07/21 05:40:51;;;;;;;10.85;5.97;;;18.20;99.90;;;;;;4996678;28;20556;-86
2021/07/21 05:43:38;;;;;;;12.20;6.07;;;18.20;99.90;;;;;;5012504;28;20128;-86
2021/07/21 05:46:25;;;;;;;11.15;5.60;;;18.40;99.90;;;;;;5013851;28;20077;-87
2021/07/21 05:49:12;;;;;;;11.60;5.57;;;18.40;99.90;;;;;;5007484;28;20179;-85
2021/07/21 05:52:01;;;;;;;10.95;5.28;;;18.50;99.90;;;;;;5008100;28;20045;-87
2021/07/21 05:54:49;;;;;;;12.25;5.93;;;18.50;99.90;;;;;;5011337;28;20116;-85
2021/07/21 05:57:37;;;;;;;9.25;5.22;;;18.50;99.90;;;;;;5015285;28;20124;-85
2021/07/21 06:01:14;;;;;;;8.98;5.30;;;18.50;99.90;;;;;;4999380;28;20382;-85
2021/07/21 06:05:05;;;;;;;9.10;5.07;;;18.60;99.90;;;;;;4924072;29;20054;-83
2021/07/21 06:08:17;;;;;;;9.32;5.15;;;18.70;99.90;;;;;;5014934;28;20045;-85
2021/07/21 06:11:05;;;;;;;10.35;5.75;;;18.90;99.90;;;;;;5007106;28;20045;-85
2021/07/21 06:13:59;;;;;;;9.07;5.68;;;18.70;99.90;;;;;;4993097;28;20046;-87
2021/07/21 06:17:15;;;;;;;10.82;5.95;;;19.00;99.90;;;;;;5005749;28;20098;-85
2021/07/21 06:20:08;;;;;;;12.02;6.30;;;18.90;99.90;;;;;;4998008;28;20042;-86
2021/07/21 06:22:55;;;;;;;;;;;18.70;99.90;;;;;;4998433;28;20078;-86
2021/07/21 06:25:42;;;;;;;9.40;5.38;;;18.80;99.90;;;;;;5022291;28;20414;-85
2021/07/21 06:28:29;;;;;;;12.55;6.10;;;18.80;99.90;;;;;;5010341;28;20127;-86
2021/07/21 06:31:17;;;;;;;10.93;6.78;;;18.90;99.90;;;;;;5020347;28;20421;-86
2021/07/21 06:34:04;;;;;;;10.38;5.72;;;18.90;99.90;;;;;;5000875;28;20046;-88
2021/07/21 06:36:52;;;;;;;10.27;5.43;;;18.90;99.90;;;;;;5014381;28;20041;-87
2021/07/21 06:39:39;;;;;;;12.52;5.97;;;19.00;99.90;;;;;;5008820;28;20049;-87
2021/07/21 06:42:26;;;;;;;11.43;5.78;;;18.90;99.90;;;;;;5007771;28;20517;-87
2021/07/21 06:45:13;;;;;;;13.35;6.43;;;19.00;99.90;;;;;;5015226;28;20091;-85
2021/07/21 06:48:02;;;;;;;9.63;5.30;;;19.00;99.90;;;;;;5009696;28;20123;-85
2021/07/21 06:50:49;;;;;;;11.30;6.18;;;19.10;99.90;;;;;;4988012;28;20127;-85
2021/07/21 06:53:36;;;;;;;8.82;5.90;;;19.20;99.90;;;;;;4997491;28;20184;-87
2021/07/21 06:56:24;;;;;;;9.43;5.07;;;19.30;99.90;;;;;;5001315;28;20041;-83
2021/07/21 06:59:11;;;;;;;11.90;6.30;;;19.40;99.90;;;;;;5004477;28;20181;-86
2021/07/21 07:01:58;;;;;;;13.35;5.57;;;19.40;99.90;;;;;;4993010;28;20038;-85
2021/07/21 07:04:47;;;;;;;10.43;6.05;;;19.50;99.90;;;;;;5009708;28;20481;-86
2021/07/21 07:07:34;;;;;;;9.37;5.37;;;19.60;99.90;;;;;;5000419;28;20057;-86
2021/07/21 07:10:21;;;;;;;9.57;5.60;;;19.60;99.90;;;;;;5012590;28;20046;-85
2021/07/21 07:13:08;;;;;;;11.35;5.35;;;19.70;99.90;;;;;;5070385;22;20127;-85
2021/07/21 07:15:55;;;;;;;11.77;5.82;;;19.80;99.90;;;;;;5070914;28;20044;-84
2021/07/21 07:18:43;;;;;;;13.10;6.47;;;19.90;99.90;;;;;;5075984;28;20041;-84
2021/07/21 07:21:31;;;;;;;11.02;6.22;;;19.90;99.90;;;;;;5077749;28;20090;-84
2021/07/21 07:24:18;;;;;;;12.25;6.20;;;20.00;99.90;;;;;;5031721;28;20053;-83
2021/07/21 07:27:05;;;;;;;12.00;6.30;;;20.10;99.90;;;;;;5062365;28;20510;-84
2021/07/21 07:29:52;;;;;;;9.88;5.90;;;20.20;99.90;;;;;;5063004;28;20036;-84
2021/07/21 07:32:40;;;;;;;9.68;5.47;;;20.20;99.90;;;;;;5044951;28;20081;-83
2021/07/21 07:35:27;;;;;;;10.80;6.05;;;20.30;99.90;;;;;;5043114;28;20049;-84
2021/07/21 07:38:18;;;;;;;10.15;6.18;;;20.30;99.90;;;;;;5031445;28;20049;-84
2021/07/21 07:41:05;;;;;;;10.20;5.70;;;20.40;99.90;;;;;;5050028;28;20127;-84
2021/07/21 07:43:53;;;;;;;12.85;5.70;;;20.30;99.90;;;;;;5063153;28;20530;-84
2021/07/21 07:46:40;;;;;;;9.02;5.30;;;20.40;99.90;;;;;;5036765;28;20607;-84
2021/07/21 07:49:27;;;;;;;9.88;5.57;;;20.50;99.90;;;;;;5038430;28;20128;-84
2021/07/21 07:52:14;;;;;;;10.38;5.45;;;20.60;99.90;;;;;;5041902;28;20045;-84
2021/07/21 07:55:05;;;;;;;8.60;5.20;;;20.10;99.90;;;;;;5052129;28;20053;-83
2021/07/21 07:57:52;;;;;;;9.35;5.63;;;20.30;99.90;;;;;;5056377;28;20124;-83
2021/07/21 08:00:39;;;;;;;10.13;5.80;;;20.30;99.90;;;;;;5043689;28;20094;-83
2021/07/21 08:03:26;;;;;;;9.02;5.22;;;20.40;99.90;;;;;;5054540;28;20515;-83
2021/07/21 08:06:14;;;;;;;9.70;5.65;;;20.70;99.90;;;;;;5045949;28;20046;-84
2021/07/21 08:09:02;;;;;;;10.88;5.78;;;21.00;99.90;;;;;;5032355;28;20049;-84
2021/07/21 08:11:55;;;;;;;10.40;5.43;;;21.10;99.90;;;;;;5036122;28;20045;-84
2021/07/21 08:14:43;;;;;;;8.30;5.03;;;21.20;99.90;;;;;;5046076;28;20558;-83
2021/07/21 08:17:30;;;;;;;9.55;5.22;;;21.10;99.90;;;;;;5049897;28;20096;-83
2021/07/21 08:20:17;;;;;;;9.60;5.00;;;21.10;99.90;;;;;;5030418;28;20041;-84
2021/07/21 08:23:04;;;;;;;10.63;5.35;;;21.10;99.90;;;;;;5045189;28;20132;-84
2021/07/21 08:25:51;;;;;;;10.52;5.30;;;21.50;99.90;;;;;;5055514;28;20048;-84
2021/07/21 08:28:40;;;;;;;10.25;5.38;;;21.30;99.90;;;;;;5044854;28;20175;-84
2021/07/21 08:31:27;;;;;;;11.52;5.57;;;21.40;99.90;;;;;;5046447;28;20045;-82
2021/07/21 08:34:14;;;;;;;12.05;5.15;;;21.20;99.90;;;;;;5049132;28;20056;-83
2021/07/21 08:37:01;;;;;;;11.30;5.43;;;21.20;99.90;;;;;;5045550;28;20045;-83
2021/07/21 08:39:48;;;;;;;9.55;5.15;;;21.20;99.90;;;;;;5052383;28;20095;-84
2021/07/21 08:42:36;;;;;;;12.23;5.75;;;21.10;99.90;;;;;;5032405;28;20040;-85
2021/07/21 08:45:26;;;;;;;10.63;5.32;;;21.20;99.90;;;;;;5040433;28;20047;-84
2021/07/21 08:48:14;;;;;;;8.90;5.18;;;21.30;99.90;;;;;;5058257;28;20411;-84
2021/07/21 08:51:03;;;;;;;7.97;4.97;;;21.50;99.90;;;;;;5045402;28;20040;-82
2021/07/21 08:53:52;;;;;;;11.35;5.22;;;21.80;99.90;;;;;;5038177;28;20176;-83
2021/07/21 08:56:39;;;;;;;11.15;5.68;;;21.90;99.90;;;;;;5041214;28;20090;-82
2021/07/21 08:59:27;;;;;;;10.75;5.57;;;21.90;99.90;;;;;;5051022;28;20455;-84
2021/07/21 09:02:16;;;;;;;9.80;5.35;;;21.90;99.90;;;;;;5050177;28;20500;-84
2021/07/21 09:05:06;;;;;;;9.65;5.38;;;21.80;99.90;;;;;;5062667;28;20048;-83
2021/07/21 09:07:53;;;;;;;11.32;5.00;;;21.80;99.90;;;;;;5055472;28;20059;-83
2021/07/21 09:10:41;;;;;;;10.30;5.22;;;21.70;99.90;;;;;;5046132;28;20067;-82
2021/07/21 09:13:29;;;;;;;11.38;5.55;;;21.80;99.90;;;;;;5032875;28;20552;-84
2021/07/21 09:16:17;;;;;;;8.32;5.28;;;21.50;99.90;;;;;;5059760;28;20049;-85
2021/07/21 09:19:05;;;;;;;10.43;5.65;;;21.40;99.90;;;;;;5054554;28;20623;-84
2021/07/21 09:22:11;;;;;;;9.88;5.47;;;21.50;99.90;;;;;;5060084;28;20264;-83
2021/07/21 09:25:13;;;;;;;9.73;5.57;;;21.40;99.90;;;;;;5053446;28;20041;-84
2021/07/21 09:28:03;;;;;;;8.90;4.97;;;21.40;99.90;;;;;;5064249;28;20049;-84
2021/07/21 09:30:50;;;;;;;11.68;6.20;;;21.30;99.90;;;;;;5047315;28;20051;-84
2021/07/21 09:33:37;;;;;;;11.75;6.10;;;21.20;99.90;;;;;;5052805;28;20100;-84
2021/07/21 09:36:26;;;;;;;8.73;5.28;;;21.20;99.90;;;;;;5035023;28;20056;-83
2021/07/21 09:39:14;;;;;;;12.35;5.57;;;21.10;99.90;;;;;;5048049;28;20045;-84
2021/07/21 09:42:03;;;;;;;10.68;5.60;;;21.10;99.90;;;;;;5036603;28;20040;-85
2021/07/21 09:44:51;;;;;;;11.73;6.78;;;21.30;99.90;;;;;;5039809;28;20526;-83
2021/07/21 09:47:42;;;;;;;15.32;6.38;;;21.40;99.90;;;;;;5049861;28;20152;-83
2021/07/21 09:50:30;;;;;;;12.77;6.05;;;21.40;99.90;;;;;;5032769;28;20059;-82
2021/07/21 09:53:18;;;;;;;11.30;5.97;;;21.80;99.90;;;;;;5047089;28;20095;-83
2021/07/21 09:56:05;;;;;;;9.20;5.45;;;21.70;99.90;;;;;;5052708;28;20045;-84
2021/07/21 09:58:52;;;;;;;10.95;5.80;;;21.90;99.90;;;;;;5051513;28;20280;-84
2021/07/21 10:01:39;;;;;;;9.48;5.25;;;23.20;99.90;;;;;;5030056;28;20045;-84
2021/07/21 10:04:36;;;;;;;10.55;5.75;;;22.00;99.90;;;;;;5052779;28;20044;-84
2021/07/21 10:10:24;;;;;;;10.27;5.40;;;22.10;99.90;;;;;;5048506;28;20402;-83
2021/07/21 10:13:13;;;;;;;11.20;5.57;;;22.00;99.90;;;;;;5055843;28;20063;-83
2021/07/21 10:16:00;;;;;;;9.87;5.87;;;22.00;99.80;;;;;;5059100;28;20059;-83
2021/07/21 10:19:00;;;;;;;9.35;5.25;;;21.60;99.90;;;;;;5030219;28;20045;-84
2021/07/21 10:21:53;;;;;;;12.25;6.40;;;21.80;99.90;;;;;;5045174;28;20083;-84
2021/07/21 10:24:40;;;;;;;10.35;5.65;;;21.90;99.90;;;;;;5050870;28;20049;-85
2021/07/21 10:27:29;;;;;;;9.70;5.82;;;21.90;99.90;;;;;;5032876;28;20045;-84
2021/07/21 10:30:16;;;;;;;9.13;5.47;;;21.60;99.90;;;;;;5036202;28;20045;-85
2021/07/21 10:33:05;;;;;;;10.60;5.60;;;21.80;99.90;;;;;;5051865;28;20059;-83
2021/07/21 10:35:52;;;;;;;9.07;5.85;;;22.10;99.90;;;;;;5031821;28;20041;-84
2021/07/21 10:38:40;;;;;;;10.10;6.25;;;22.10;99.90;;;;;;5029958;28;20256;-83
2021/07/21 10:41:29;;;;;;;9.95;5.72;;;21.90;99.90;;;;;;5050345;28;20053;-83
2021/07/21 10:44:19;;;;;;;10.00;5.80;;;21.50;99.90;;;;;;5049972;28;20494;-84
2021/07/21 10:47:24;;;;;;;;;;;21.40;99.90;;;;;;5050212;28;20041;-84
2021/07/21 10:50:27;;;;;;;11.90;6.78;;;21.70;99.90;;;;;;5047783;28;19928;-84
2021/07/21 10:53:46;;;;;;;10.80;6.75;;;22.00;99.90;;;;;;5033635;28;20527;-84
2021/07/21 10:59:42;;;;;;;10.15;6.03;;;22.40;99.90;;;;;;5049903;28;20411;-83
2021/07/21 11:02:31;;;;;;;12.88;6.15;;;22.30;99.60;;;;;;5041399;28;20124;-85
2021/07/21 11:05:30;;;;;;;12.98;6.22;;;22.10;99.90;;;;;;5036348;28;20057;-82
2021/07/21 11:08:19;;;;;;;10.77;6.68;;;22.30;99.60;;;;;;5037301;28;20123;-82
2021/07/21 11:11:10;;;;;;;11.03;6.37;;;22.10;99.70;;;;;;5052998;28;20103;-82
2021/07/21 11:13:59;;;;;;;10.80;6.43;;;22.00;99.90;;;;;;5035319;28;20076;-84
2021/07/21 11:16:50;;;;;;;11.02;5.75;;;21.50;99.90;;;;;;5054172;28;20103;-85
2021/07/21 11:19:44;;;;;;;13.55;6.63;;;21.70;99.90;;;;;;5061238;28;20056;-85
2021/07/21 11:22:33;;;;;;;12.88;6.63;;;21.80;99.90;;;;;;5039077;28;20055;-85
2021/07/21 11:25:22;;;;;;;10.15;6.38;;;22.00;99.90;;;;;;5061319;28;20044;-84
2021/07/21 11:28:10;;;;;;;12.82;5.85;;;22.20;99.30;;;;;;5046087;28;20049;-85
2021/07/21 11:30:58;;;;;;;10.30;6.03;;;22.40;98.90;;;;;;5045729;28;20123;-83
2021/07/21 11:33:54;;;;;;;12.20;6.93;;;22.50;99.50;;;;;;5035311;28;20049;-84
2021/07/21 11:36:56;;;;;;;11.98;6.25;;;22.10;99.90;;;;;;5050566;28;20080;-85
2021/07/21 11:39:45;;;;;;;12.43;6.82;;;22.00;99.90;;;;;;5044147;28;20041;-84
2021/07/21 11:42:34;;;;;;;10.43;6.50;;;22.10;99.80;;;;;;5028510;28;20047;-84
2021/07/21 11:45:21;;;;;;;11.05;6.07;;;22.00;99.90;;;;;;5040756;28;20040;-85
2021/07/21 11:48:09;;;;;;;10.75;6.32;;;22.50;99.90;;;;;;5052704;28;20518;-84
2021/07/21 11:50:58;;;;;;;10.60;6.30;;;22.70;98.70;;;;;;5035732;28;20043;-83
2021/07/21 11:53:47;;;;;;;15.15;6.78;;;22.50;98.40;;;;;;5053826;28;20174;-84
2021/07/21 11:56:34;;;;;;;11.02;5.70;;;22.50;98.80;;;;;;5056654;28;20040;-83
2021/07/21 11:59:33;;;;;;;12.50;6.75;;;22.40;99.10;;;;;;5030104;28;20053;-84
2021/07/21 12:02:21;;;;;;;10.23;5.43;;;22.40;98.60;;;;;;5039122;28;20067;-84
2021/07/21 12:05:09;;;;;;;17.98;6.38;;;22.50;99.30;;;;;;5046616;28;20127;-84
2021/07/21 12:08:03;;;;;;;12.52;6.53;;;22.60;98.80;;;;;;5047322;28;20056;-83
2021/07/21 12:10:52;;;;;;;9.32;6.18;;;22.60;98.30;;;;;;5056696;28;20171;-83
2021/07/21 12:13:39;;;;;;;10.93;5.93;;;22.50;98.40;;;;;;5032147;28;20041;-83
2021/07/21 12:16:28;;;;;;;12.07;6.85;;;22.20;99.40;;;;;;5039945;28;20049;-81
2021/07/21 12:19:15;;;;;;;11.52;7.15;;;22.20;98.80;;;;;;5038702;28;20077;-83
2021/07/21 12:22:06;;;;;;;10.85;6.85;;;22.00;99.00;;;;;;5042899;28;20111;-84
2021/07/21 12:24:55;;;;;;;12.63;6.88;;;22.20;98.80;;;;;;5042100;28;20427;-83
2021/07/21 12:27:44;;;;;;;11.85;6.93;;;22.20;99.10;;;;;;5064772;28;20064;-83
2021/07/21 12:30:36;;;;;;;13.82;6.68;;;22.50;98.30;;;;;;5049909;28;20048;-85
2021/07/21 12:33:23;;;;;;;13.32;6.45;;;22.80;98.10;;;;;;5056806;28;20140;-84
2021/07/21 12:36:11;;;;;;;13.52;7.03;;;23.00;98.80;;;;;;5046380;28;20199;-83
2021/07/21 12:38:58;;;;;;;11.90;5.97;;;23.40;98.00;;;;;;5032340;28;20195;-84
2021/07/21 12:41:46;;;;;;;11.27;6.35;;;23.90;97.20;;;;;;5036343;28;20041;-84
2021/07/21 12:44:37;;;;;;;9.93;6.35;;;24.00;96.40;;;;;;5050261;28;20138;-84
2021/07/21 12:47:27;;;;;;;13.75;6.80;;;24.00;97.20;;;;;;5047399;28;20076;-84
2021/07/21 12:50:16;;;;;;;13.48;7.03;;;23.90;95.40;;;;;;5061949;28;20136;-84
2021/07/21 12:53:04;;;;;;;;;;;23.70;95.80;;;;;;5043034;28;20097;-83
2021/07/21 12:55:56;;;;;;;15.57;6.97;;;23.90;96.40;;;;;;5043585;28;19997;-84
2021/07/21 12:58:44;;;;;;;12.00;6.85;;;24.10;96.40;;;;;;5034766;28;20045;-84
2021/07/21 13:01:31;;;;;;;10.80;6.78;;;24.30;96.20;;;;;;5048929;28;20041;-84
2021/07/21 13:04:29;;;;;;;13.00;7.22;;;24.50;96.00;;;;;;5061884;28;20044;-84
2021/07/21 13:07:21;;;;;;;10.43;6.85;;;24.60;96.20;;;;;;5061534;28;20136;-83
2021/07/21 13:10:09;;;;;;;12.25;7.20;;;24.90;95.80;;;;;;5053540;28;20323;-83
2021/07/21 13:12:57;;;;;;;12.63;6.85;;;24.80;96.30;;;;;;5083160;22;21547;-85
2021/07/21 13:15:55;;;;;;;11.77;7.00;;;24.90;95.50;;;;;;5043922;28;20043;-82
2021/07/21 13:18:44;;;;;;;12.63;7.75;;;25.20;94.20;;;;;;5061567;28;20075;-84
2021/07/21 13:21:34;;;;;;;;;;;25.10;94.90;;;;;;5047784;28;20041;-85
2021/07/21 13:24:26;;;;;;;11.82;6.97;;;25.10;94.30;;;;;;5050127;28;19954;-84
2021/07/21 13:27:13;;;;;;;12.10;6.82;;;25.20;94.30;;;;;;5068130;28;20053;-85
2021/07/21 13:30:17;;;;;;;11.93;7.20;;;25.50;94.60;;;;;;5048416;28;20040;-85
2021/07/21 13:33:10;;;;;;;11.02;6.70;;;25.80;93.90;;;;;;5046265;28;20048;-85
2021/07/21 13:36:05;;;;;;;11.32;6.15;;;26.00;93.00;;;;;;5070823;28;20055;-83
2021/07/21 13:38:55;;;;;;;10.73;6.60;;;25.90;94.60;;;;;;5061037;28;20120;-86
2021/07/21 13:41:50;;;;;;;12.55;6.68;;;26.00;93.30;;;;;;5049585;28;20123;-84
2021/07/21 13:44:37;;;;;;;9.68;6.47;;;26.10;93.30;;;;;;5048466;28;20132;-86
2021/07/21 13:47:27;;;;;;;13.90;7.32;;;26.00;93.80;;;;;;5066619;28;20585;-84
2021/07/21 13:50:15;;;;;;;12.82;6.25;;;26.20;92.80;;;;;;5051847;28;20128;-82
2021/07/21 13:53:05;;;;;;;12.60;6.82;;;25.90;90.90;;;;;;5048486;28;20462;-86
2021/07/21 13:55:52;;;;;;;11.35;6.95;;;25.30;91.40;;;;;;5052152;28;20359;-86
2021/07/21 13:58:39;;;;;;;12.10;7.10;;;25.10;92.10;;;;;;5055366;28;20049;-85
2021/07/21 14:01:27;;;;;;;11.45;6.50;;;25.00;93.10;;;;;;5046106;28;20669;-87
2021/07/21 14:04:14;;;;;;;10.45;6.13;;;25.10;92.70;;;;;;5043814;28;20473;-87
2021/07/21 14:07:04;;;;;;;11.43;6.68;;;25.50;94.10;;;;;;5048174;28;20328;-86
2021/07/21 14:09:52;;;;;;;10.75;6.55;;;25.40;93.70;;;;;;5051397;28;20130;-83
2021/07/21 14:12:39;;;;;;;10.85;6.32;;;25.50;94.10;;;;;;5049035;28;20044;-86
2021/07/21 14:15:26;;;;;;;11.80;6.50;;;25.50;93.40;;;;;;5059326;28;20589;-85
2021/07/21 14:18:13;;;;;;;12.20;6.75;;;25.60;93.10;;;;;;5050260;28;20131;-84
2021/07/21 14:21:00;;;;;;;10.80;6.20;;;25.50;92.70;;;;;;5042771;28;20083;-84
2021/07/21 14:23:49;;;;;;;13.98;6.70;;;25.90;91.80;;;;;;5033786;28;20052;-86
2021/07/21 14:26:37;;;;;;;10.65;7.10;;;26.60;91.20;;;;;;5046662;28;20053;-85
2021/07/21 14:29:24;;;;;;;12.65;6.45;;;26.60;92.60;;;;;;5037397;28;20048;-84
2021/07/21 14:32:11;;;;;;;9.30;5.95;;;26.90;92.20;;;;;;5036742;28;20083;-85
2021/07/21 14:34:59;;;;;;;11.00;6.70;;;27.10;92.20;;;;;;5046762;28;20048;-86
2021/07/21 14:37:46;;;;;;;10.23;5.93;;;27.10;91.30;;;;;;5043884;28;20041;-86
2021/07/21 14:40:35;;;;;;;9.98;6.25;;;27.40;91.00;;;;;;5054771;28;20154;-86
2021/07/21 14:43:22;;;;;;;10.80;6.50;;;27.20;91.70;;;;;;5053065;28;20583;-84
2021/07/21 14:46:11;;;;;;;11.52;6.57;;;27.30;91.70;;;;;;5050487;28;20106;-84
2021/07/21 14:48:58;;;;;;;11.50;6.72;;;27.40;90.20;;;;;;5046263;28;20048;-87